Time;durP1;ratioP1;P1;durP2;ratioP2;P2;SDS_P1;SDS_P2;PMS_P1;PMS_P2;Temp;Humidity;BMP_temperature;BMP_pressure;BME280_temperature;BME280_humidity;BME280_pressure;Samples;Min_cycle;Max_cycle;Signal;HPM_P1;HPM_P2
2021/12/28 00:00:41;;;;;;;39.83;25.13;;;;;;;;;;5038145;28;20488;-82
2021/12/28 00:03:07;;;;;;;42.17;26.10;;;;;;;;;;5041381;28;20444;-81
2021/12/28 00:05:34;;;;;;;37.03;23.43;;;;;;;;;;5043375;28;20987;-83
2021/12/28 00:08:00;;;;;;;38.07;24.60;;;;;;;;;;5042258;28;20842;-83
2021/12/28 00:10:26;;;;;;;40.57;25.37;;;;;;;;;;5041418;28;20473;-83
2021/12/28 00:12:55;;;;;;;39.83;25.13;;;;;;;;;;5043046;28;20492;-83
2021/12/28 00:15:34;;;;;;;41.43;25.93;;;;;;;;;;5040046;28;20479;-82
2021/12/28 00:18:02;;;;;;;42.40;27.77;;;;;;;;;;5041540;28;20497;-82
2021/12/28 00:20:29;;;;;;;39.00;25.00;;;;;;;;;;5042190;28;20537;-82
2021/12/28 00:22:56;;;;;;;39.23;25.70;;;;;;;;;;5043504;28;20463;-83
2021/12/28 00:25:22;;;;;;;35.90;23.70;;;;;;;;;;5039482;28;20480;-82
2021/12/28 00:27:50;;;;;;;35.77;23.80;;;;;;;;;;5041473;28;20484;-83
2021/12/28 00:30:17;;;;;;;38.33;25.93;;;;;;;;;;5039302;28;20479;-82
2021/12/28 00:32:46;;;;;;;43.97;27.13;;;;;;;;;;5039995;28;20511;-82
2021/12/28 00:35:12;;;;;;;43.83;26.53;;;;;;;;;;5041513;28;20472;-83
2021/12/28 00:37:39;;;;;;;41.83;27.50;;;;;;;;;;5042404;28;20483;-82
2021/12/28 00:40:06;;;;;;;39.10;24.43;;;;;;;;;;5040981;28;20469;-83
2021/12/28 00:42:32;;;;;;;38.07;23.93;;;;;;;;;;5041505;28;20452;-82
2021/12/28 00:44:58;;;;;;;35.77;26.17;;;;;;;;;;5042316;28;20479;-83
2021/12/28 00:47:26;;;;;;;37.60;26.43;;;;;;;;;;5042200;28;20480;-83
2021/12/28 00:49:52;;;;;;;38.50;23.50;;;;;;;;;;5041221;28;20534;-82
2021/12/28 00:52:18;;;;;;;41.63;25.13;;;;;;;;;;5042585;28;20539;-81
2021/12/28 00:54:45;;;;;;;32.50;23.53;;;;;;;;;;5042181;28;20545;-82
2021/12/28 00:57:11;;;;;;;35.73;25.90;;;;;;;;;;5042034;28;20461;-84
2021/12/28 00:59:37;;;;;;;38.20;24.93;;;;;;;;;;5041425;28;20475;-83
2021/12/28 01:02:04;;;;;;;42.97;26.10;;;;;;;;;;5041271;28;20456;-81
2021/12/28 01:04:31;;;;;;;40.83;27.10;;;;;;;;;;5041859;28;20946;-82
2021/12/28 01:06:58;;;;;;;37.50;24.60;;;;;;;;;;5042392;28;21026;-82
2021/12/28 01:09:30;;;;;;;39.70;23.77;;;;;;;;;;5039861;28;21706;-82
2021/12/28 01:11:56;;;;;;;32.63;23.60;;;;;;;;;;5041146;28;20457;-82
2021/12/28 01:14:22;;;;;;;38.43;23.97;;;;;;;;;;5040526;28;20522;-82
2021/12/28 01:16:48;;;;;;;34.50;23.63;;;;;;;;;;5040862;28;20529;-82
2021/12/28 01:19:15;;;;;;;39.83;25.20;;;;;;;;;;5042466;23;20492;-85
2021/12/28 01:21:42;;;;;;;43.83;25.53;;;;;;;;;;5001788;28;20494;-86
2021/12/28 01:24:08;;;;;;;35.07;24.23;;;;;;;;;;4999763;28;20458;-86
2021/12/28 01:26:35;;;;;;;38.77;25.30;;;;;;;;;;5001049;28;20945;-86
2021/12/28 01:29:01;;;;;;;35.40;23.10;;;;;;;;;;5000592;28;20593;-85
2021/12/28 01:31:27;;;;;;;38.63;26.30;;;;;;;;;;5000049;28;20485;-85
2021/12/28 01:33:54;;;;;;;41.20;25.13;;;;;;;;;;5001466;28;20533;-85
2021/12/28 01:36:20;;;;;;;37.17;24.87;;;;;;;;;;4999400;28;20477;-85
2021/12/28 01:38:48;;;;;;;37.00;23.70;;;;;;;;;;4998932;28;20486;-85
2021/12/28 01:41:15;;;;;;;33.87;26.57;;;;;;;;;;4999390;28;20491;-86
2021/12/28 01:43:43;;;;;;;35.40;25.70;;;;;;;;;;5000847;28;20449;-86
2021/12/28 01:46:09;;;;;;;39.10;26.50;;;;;;;;;;5013395;28;20481;-85
2021/12/28 01:48:36;;;;;;;40.10;24.60;;;;;;;;;;5017497;28;20484;-86
2021/12/28 01:51:04;;;;;;;34.60;24.03;;;;;;;;;;5019013;28;20535;-86
2021/12/28 01:53:30;;;;;;;36.47;22.40;;;;;;;;;;5020616;28;20828;-86
2021/12/28 01:55:59;;;;;;;38.67;24.40;;;;;;;;;;5015315;28;20489;-86
2021/12/28 01:58:26;;;;;;;37.27;23.17;;;;;;;;;;5020212;28;20499;-86
2021/12/28 02:00:53;;;;;;;33.57;23.40;;;;;;;;;;5022852;28;20476;-86
2021/12/28 02:03:21;;;;;;;42.23;24.93;;;;;;;;;;5023431;28;20457;-86
2021/12/28 02:05:48;;;;;;;37.80;23.40;;;;;;;;;;5024307;28;20504;-86
2021/12/28 02:08:15;;;;;;;39.07;24.47;;;;;;;;;;5022244;28;20497;-85
2021/12/28 02:10:42;;;;;;;38.43;25.27;;;;;;;;;;5023269;28;20477;-86
2021/12/28 02:13:09;;;;;;;44.70;25.10;;;;;;;;;;5027757;28;20562;-85
2021/12/28 02:15:36;;;;;;;35.27;23.13;;;;;;;;;;5030324;28;20495;-86
2021/12/28 02:18:03;;;;;;;41.90;25.10;;;;;;;;;;5026916;28;20469;-86
2021/12/28 02:20:31;;;;;;;40.53;25.37;;;;;;;;;;5028318;28;20484;-86
2021/12/28 02:22:57;;;;;;;41.10;26.33;;;;;;;;;;5029264;28;20446;-86
2021/12/28 02:25:23;;;;;;;39.97;26.90;;;;;;;;;;5029085;28;20482;-85
2021/12/28 02:27:49;;;;;;;37.87;24.93;;;;;;;;;;5026404;28;20462;-85
2021/12/28 02:30:16;;;;;;;44.90;25.03;;;;;;;;;;5027057;28;20460;-85
2021/12/28 02:32:43;;;;;;;38.60;24.30;;;;;;;;;;5026837;28;20482;-85
2021/12/28 02:35:12;;;;;;;39.37;25.57;;;;;;;;;;5027559;28;20499;-86
2021/12/28 02:37:40;;;;;;;40.90;25.77;;;;;;;;;;5024989;28;20842;-85
2021/12/28 02:40:08;;;;;;;38.73;24.77;;;;;;;;;;5027870;28;20905;-85
2021/12/28 02:42:34;;;;;;;39.13;25.27;;;;;;;;;;5026436;28;20830;-86
2021/12/28 02:45:05;;;;;;;37.30;24.53;;;;;;;;;;5025968;28;20505;-85
2021/12/28 02:47:32;;;;;;;39.97;25.17;;;;;;;;;;5026011;28;20523;-86
2021/12/28 02:49:58;;;;;;;31.97;23.30;;;;;;;;;;5027333;28;20561;-86
2021/12/28 02:52:24;;;;;;;37.50;23.67;;;;;;;;;;5028571;28;20454;-85
2021/12/28 02:54:52;;;;;;;40.90;25.60;;;;;;;;;;5026305;28;20480;-86
2021/12/28 02:57:18;;;;;;;37.70;23.87;;;;;;;;;;5024294;28;20452;-85
2021/12/28 02:59:45;;;;;;;40.33;26.73;;;;;;;;;;5025174;28;20477;-86
2021/12/28 03:02:11;;;;;;;34.80;22.07;;;;;;;;;;5027055;28;20445;-86
2021/12/28 03:04:38;;;;;;;35.60;23.70;;;;;;;;;;5027093;28;20477;-86
2021/12/28 03:07:05;;;;;;;41.90;26.60;;;;;;;;;;5029041;28;20450;-86
2021/12/28 03:09:31;;;;;;;46.17;28.00;;;;;;;;;;5026851;28;20908;-86
2021/12/28 03:11:59;;;;;;;37.63;24.10;;;;;;;;;;5028063;28;20458;-86
2021/12/28 03:14:25;;;;;;;34.87;25.30;;;;;;;;;;5027259;28;20480;-86
2021/12/28 03:16:51;;;;;;;40.30;25.47;;;;;;;;;;5026853;28;20504;-86
2021/12/28 03:19:17;;;;;;;39.10;25.53;;;;;;;;;;5025622;28;21044;-86
2021/12/28 03:21:44;;;;;;;42.23;27.40;;;;;;;;;;5028233;28;21014;-86
2021/12/28 03:24:11;;;;;;;39.13;26.40;;;;;;;;;;5026882;28;20441;-85
2021/12/28 03:26:38;;;;;;;36.80;26.43;;;;;;;;;;5029043;28;20460;-86
2021/12/28 03:29:06;;;;;;;38.93;25.67;;;;;;;;;;5027002;28;20560;-86
2021/12/28 03:31:33;;;;;;;41.67;25.40;;;;;;;;;;5024846;28;20485;-86
2021/12/28 03:33:59;;;;;;;41.17;26.27;;;;;;;;;;5027519;28;20555;-86
2021/12/28 03:36:27;;;;;;;42.27;26.97;;;;;;;;;;5025618;28;20528;-85
2021/12/28 03:38:54;;;;;;;41.90;26.83;;;;;;;;;;5027411;28;20505;-85
2021/12/28 03:41:21;;;;;;;43.97;28.30;;;;;;;;;;5024747;28;20508;-86
2021/12/28 03:43:49;;;;;;;42.53;25.60;;;;;;;;;;5025985;28;20855;-86
2021/12/28 03:46:17;;;;;;;44.13;27.77;;;;;;;;;;5024720;28;20512;-86
2021/12/28 03:48:43;;;;;;;42.77;29.10;;;;;;;;;;5023624;28;20477;-85
2021/12/28 03:51:10;;;;;;;46.47;28.50;;;;;;;;;;5024172;28;20531;-85
2021/12/28 03:53:36;;;;;;;42.50;28.43;;;;;;;;;;5026933;28;20484;-86
2021/12/28 03:56:04;;;;;;;40.00;28.23;;;;;;;;;;5025398;28;20544;-86
2021/12/28 03:58:30;;;;;;;42.67;27.50;;;;;;;;;;5026634;28;20477;-85
2021/12/28 04:00:57;;;;;;;39.37;24.60;;;;;;;;;;5025938;28;20481;-86
2021/12/28 04:03:24;;;;;;;43.00;28.73;;;;;;;;;;5025224;28;20461;-85
2021/12/28 04:05:51;;;;;;;43.20;30.40;;;;;;;;;;5023141;28;20527;-86
2021/12/28 04:08:21;;;;;;;47.53;30.13;;;;;;;;;;5026179;28;20524;-86
2021/12/28 04:10:53;;;;;;;43.70;28.87;;;;;;;;;;5025360;28;20535;-86
2021/12/28 04:13:20;;;;;;;47.70;28.77;;;;;;;;;;5024612;28;20481;-86
2021/12/28 04:15:47;;;;;;;45.20;27.87;;;;;;;;;;5024690;28;20481;-85
2021/12/28 04:18:13;;;;;;;46.30;29.57;;;;;;;;;;5024933;28;20491;-86
2021/12/28 04:20:41;;;;;;;45.40;28.73;;;;;;;;;;5024012;28;20485;-85
2021/12/28 04:23:08;;;;;;;40.10;26.50;;;;;;;;;;5025844;28;20454;-86
2021/12/28 04:25:34;;;;;;;45.33;29.20;;;;;;;;;;5024067;28;20526;-85
2021/12/28 04:28:01;;;;;;;43.03;27.80;;;;;;;;;;5026294;28;20464;-85
2021/12/28 04:30:27;;;;;;;45.93;27.67;;;;;;;;;;5025200;28;20532;-85
2021/12/28 04:32:53;;;;;;;46.30;27.10;;;;;;;;;;5024322;28;20466;-85
2021/12/28 04:35:19;;;;;;;49.43;28.97;;;;;;;;;;5023862;28;20527;-85
2021/12/28 04:37:47;;;;;;;46.70;29.00;;;;;;;;;;5025849;28;20518;-86
2021/12/28 04:40:13;;;;;;;47.63;29.53;;;;;;;;;;5024520;28;20480;-85
2021/12/28 04:42:41;;;;;;;50.60;31.00;;;;;;;;;;5025332;28;20502;-86
2021/12/28 04:45:09;;;;;;;48.87;29.40;;;;;;;;;;5023224;28;21082;-86
2021/12/28 04:47:35;;;;;;;48.53;30.33;;;;;;;;;;5024684;28;20548;-85
2021/12/28 04:50:02;;;;;;;48.30;28.33;;;;;;;;;;5022937;28;20547;-85
2021/12/28 04:52:29;;;;;;;44.93;27.03;;;;;;;;;;5024906;28;20453;-85
2021/12/28 04:54:57;;;;;;;48.47;30.33;;;;;;;;;;5022935;28;20515;-86
2021/12/28 04:57:23;;;;;;;45.20;28.30;;;;;;;;;;5024296;28;20469;-85
2021/12/28 04:59:50;;;;;;;45.70;28.80;;;;;;;;;;5018939;28;20481;-85
2021/12/28 05:02:16;;;;;;;50.10;29.27;;;;;;;;;;5022151;28;20449;-85
2021/12/28 05:04:43;;;;;;;50.10;29.53;;;;;;;;;;5024653;28;20464;-86
2021/12/28 05:07:10;;;;;;;42.70;27.80;;;;;;;;;;5024174;28;20460;-85
2021/12/28 05:09:36;;;;;;;43.50;26.83;;;;;;;;;;5022397;28;20478;-86
2021/12/28 05:12:04;;;;;;;41.97;27.83;;;;;;;;;;5022348;28;20513;-86
2021/12/28 05:14:30;;;;;;;41.53;26.53;;;;;;;;;;5024137;28;20462;-86
2021/12/28 05:16:57;;;;;;;51.50;29.70;;;;;;;;;;5023655;28;20452;-85
2021/12/28 05:19:24;;;;;;;46.33;27.77;;;;;;;;;;5019670;28;20485;-85
2021/12/28 05:21:50;;;;;;;44.30;27.03;;;;;;;;;;5021620;28;20449;-86
2021/12/28 05:24:16;;;;;;;45.00;26.83;;;;;;;;;;5020822;28;20478;-86
2021/12/28 05:26:42;;;;;;;38.57;26.90;;;;;;;;;;5022120;28;20465;-84
2021/12/28 05:29:10;;;;;;;47.73;27.93;;;;;;;;;;5018915;28;20501;-85
2021/12/28 05:31:36;;;;;;;42.87;27.40;;;;;;;;;;5017953;28;20469;-85
2021/12/28 05:34:02;;;;;;;43.70;27.57;;;;;;;;;;5022053;28;20543;-85
2021/12/28 05:36:29;;;;;;;45.17;26.97;;;;;;;;;;5022684;28;20469;-86
2021/12/28 05:38:55;;;;;;;39.83;26.60;;;;;;;;;;5021356;28;20724;-85
2021/12/28 05:41:21;;;;;;;46.17;26.90;;;;;;;;;;5017358;28;20481;-85
2021/12/28 05:43:48;;;;;;;42.77;26.90;;;;;;;;;;5021009;28;20457;-86
2021/12/28 05:46:15;;;;;;;38.97;25.73;;;;;;;;;;5021293;28;20473;-85
2021/12/28 05:48:41;;;;;;;43.53;26.50;;;;;;;;;;5026124;28;20519;-86
2021/12/28 05:51:08;;;;;;;48.67;28.90;;;;;;;;;;5023783;28;20928;-87
2021/12/28 05:53:34;;;;;;;40.70;25.67;;;;;;;;;;5025703;28;20519;-87
2021/12/28 05:56:00;;;;;;;44.53;27.30;;;;;;;;;;5025876;28;20473;-86
2021/12/28 05:58:27;;;;;;;48.63;29.70;;;;;;;;;;5024628;28;20503;-86
2021/12/28 06:00:53;;;;;;;45.80;27.50;;;;;;;;;;5023629;28;20485;-86
2021/12/28 06:03:20;;;;;;;47.47;28.17;;;;;;;;;;5025131;28;20978;-86
2021/12/28 06:05:47;;;;;;;43.27;27.33;;;;;;;;;;5021718;28;20998;-86
2021/12/28 06:08:13;;;;;;;40.00;26.73;;;;;;;;;;5023921;28;20473;-85
2021/12/28 06:10:40;;;;;;;40.27;25.90;;;;;;;;;;5025112;28;20465;-86
2021/12/28 06:13:06;;;;;;;43.60;27.53;;;;;;;;;;5025301;28;20500;-86
2021/12/28 06:15:33;;;;;;;41.17;27.43;;;;;;;;;;5024102;28;20535;-86
2021/12/28 06:17:59;;;;;;;39.37;27.03;;;;;;;;;;5023351;28;20456;-85
2021/12/28 06:20:27;;;;;;;44.83;26.83;;;;;;;;;;5020910;28;20489;-86
2021/12/28 06:22:53;;;;;;;45.10;28.20;;;;;;;;;;5023059;28;20454;-86
2021/12/28 06:25:19;;;;;;;42.70;27.10;;;;;;;;;;5020939;28;20496;-86
2021/12/28 06:27:45;;;;;;;45.13;26.67;;;;;;;;;;5024846;28;20442;-85
2021/12/28 06:30:12;;;;;;;42.63;28.17;;;;;;;;;;5022411;28;20477;-85
2021/12/28 06:32:39;;;;;;;43.10;27.23;;;;;;;;;;5022637;28;20465;-86
2021/12/28 06:35:06;;;;;;;40.37;25.90;;;;;;;;;;5017469;28;20507;-86
2021/12/28 06:37:33;;;;;;;40.87;25.20;;;;;;;;;;5022408;28;20453;-86
2021/12/28 06:40:00;;;;;;;40.90;26.37;;;;;;;;;;5020561;28;20558;-85
2021/12/28 06:42:26;;;;;;;38.50;24.50;;;;;;;;;;5021927;28;20468;-84
2021/12/28 06:44:52;;;;;;;45.30;27.57;;;;;;;;;;5019670;28;20539;-86
2021/12/28 06:47:19;;;;;;;39.30;25.33;;;;;;;;;;5019554;28;20555;-86
2021/12/28 06:49:45;;;;;;;38.37;25.77;;;;;;;;;;5017459;28;20528;-86
2021/12/28 06:52:12;;;;;;;37.53;23.43;;;;;;;;;;5019450;28;20473;-86
2021/12/28 06:54:39;;;;;;;39.10;25.80;;;;;;;;;;5025845;28;21049;-85
2021/12/28 06:57:07;;;;;;;42.67;25.37;;;;;;;;;;5026666;28;20991;-86
2021/12/28 06:59:33;;;;;;;39.60;25.77;;;;;;;;;;5026673;28;20470;-86
2021/12/28 07:02:00;;;;;;;38.50;24.73;;;;;;;;;;5027163;28;20462;-86
2021/12/28 07:04:26;;;;;;;36.30;22.70;;;;;;;;;;5022252;28;20491;-86
2021/12/28 07:06:52;;;;;;;37.60;23.43;;;;;;;;;;5022008;28;20496;-86
2021/12/28 07:09:18;;;;;;;34.07;24.40;;;;;;;;;;5023341;28;20464;-86
2021/12/28 07:11:46;;;;;;;35.33;23.07;;;;;;;;;;5006829;28;20447;-87
2021/12/28 07:14:12;;;;;;;39.00;25.40;;;;;;;;;;5006685;28;20478;-86
2021/12/28 07:16:39;;;;;;;43.30;26.30;;;;;;;;;;5007979;28;20998;-86
2021/12/28 07:21:43;;;;;;;39.73;24.00;;;;;;;;;;4986212;28;21089;-83
2021/12/28 07:24:10;;;;;;;46.63;27.23;;;;;;;;;;4990670;28;20457;-81
2021/12/28 07:26:37;;;;;;;43.73;25.83;;;;;;;;;;4981223;28;20483;-80
2021/12/28 07:29:05;;;;;;;40.80;27.33;;;;;;;;;;4990017;28;20465;-81
2021/12/28 07:31:31;;;;;;;41.47;26.77;;;;;;;;;;4985359;28;20477;-84
2021/12/28 07:33:58;;;;;;;47.17;28.10;;;;;;;;;;4989261;28;20466;-80
2021/12/28 07:36:24;;;;;;;43.03;25.23;;;;;;;;;;4989132;28;21009;-82
2021/12/28 07:38:51;;;;;;;46.03;27.00;;;;;;;;;;4991712;28;20541;-81
2021/12/28 07:41:17;;;;;;;41.63;26.57;;;;;;;;;;4988895;28;20482;-81
2021/12/28 07:43:43;;;;;;;42.73;26.87;;;;;;;;;;4987653;28;20538;-81
2021/12/28 07:46:11;;;;;;;38.63;24.27;;;;;;;;;;4988830;28;20482;-83
2021/12/28 07:48:37;;;;;;;45.13;26.37;;;;;;;;;;4989289;28;20860;-81
2021/12/28 07:51:04;;;;;;;39.30;24.20;;;;;;;;;;4981765;28;20478;-83
2021/12/28 07:53:30;;;;;;;42.10;27.43;;;;;;;;;;4990063;28;20453;-84
2021/12/28 07:55:58;;;;;;;42.90;25.33;;;;;;;;;;4988874;28;20502;-84
2021/12/28 07:58:25;;;;;;;35.57;25.23;;;;;;;;;;4991235;28;20478;-83
2021/12/28 08:00:52;;;;;;;41.57;25.03;;;;;;;;;;4991164;28;20582;-82
2021/12/28 08:03:20;;;;;;;44.00;25.80;;;;;;;;;;4993388;28;20848;-83
2021/12/28 08:05:47;;;;;;;43.50;26.20;;;;;;;;;;4992455;28;20886;-84
2021/12/28 08:08:13;;;;;;;39.70;25.37;;;;;;;;;;4988978;28;20482;-84
2021/12/28 08:10:40;;;;;;;48.10;26.90;;;;;;;;;;4989071;28;20554;-83
2021/12/28 08:13:06;;;;;;;41.70;26.10;;;;;;;;;;4989943;28;20486;-81
2021/12/28 08:15:32;;;;;;;45.70;25.47;;;;;;;;;;4993212;28;20475;-80
2021/12/28 08:17:59;;;;;;;45.83;26.83;;;;;;;;;;4990881;28;20489;-81
2021/12/28 08:20:27;;;;;;;45.90;26.67;;;;;;;;;;4995664;28;21061;-84
2021/12/28 08:22:53;;;;;;;40.37;24.77;;;;;;;;;;4988889;28;20514;-81
2021/12/28 08:25:20;;;;;;;44.40;26.53;;;;;;;;;;4991231;28;20820;-82
2021/12/28 08:27:47;;;;;;;39.97;26.50;;;;;;;;;;4991198;28;20863;-80
2021/12/28 08:30:14;;;;;;;44.43;26.17;;;;;;;;;;4989635;28;20443;-81
2021/12/28 08:32:40;;;;;;;41.43;25.97;;;;;;;;;;4990087;28;20485;-82
2021/12/28 08:35:08;;;;;;;47.67;26.90;;;;;;;;;;4995112;28;20504;-82
2021/12/28 08:37:35;;;;;;;39.27;24.50;;;;;;;;;;4991402;28;20489;-83
2021/12/28 08:40:02;;;;;;;39.80;27.43;;;;;;;;;;4991629;28;20454;-81
2021/12/28 08:42:28;;;;;;;40.07;25.60;;;;;;;;;;4976716;28;20476;-81
2021/12/28 08:44:54;;;;;;;42.10;25.60;;;;;;;;;;4974476;28;20467;-83
2021/12/28 08:47:26;;;;;;;43.30;25.53;;;;;;;;;;4978007;28;20481;-82
2021/12/28 08:49:53;;;;;;;47.27;25.87;;;;;;;;;;4990425;28;20902;-79
2021/12/28 08:52:19;;;;;;;40.83;25.67;;;;;;;;;;4988302;28;20499;-83
2021/12/28 08:54:47;;;;;;;36.70;24.93;;;;;;;;;;4993057;28;20498;-83
2021/12/28 08:57:13;;;;;;;39.80;25.90;;;;;;;;;;4985543;28;20482;-78
2021/12/28 08:59:39;;;;;;;41.33;25.40;;;;;;;;;;4987497;28;20465;-83
2021/12/28 09:02:07;;;;;;;44.10;24.80;;;;;;;;;;4989896;28;20486;-83
2021/12/28 09:04:34;;;;;;;43.73;24.00;;;;;;;;;;4990234;28;20473;-83
2021/12/28 09:07:00;;;;;;;44.23;24.50;;;;;;;;;;4991090;28;20516;-83
2021/12/28 09:09:26;;;;;;;41.20;22.77;;;;;;;;;;4992466;28;20467;-83
2021/12/28 09:11:54;;;;;;;38.40;23.13;;;;;;;;;;4989318;28;20497;-82
2021/12/28 09:14:21;;;;;;;39.53;22.40;;;;;;;;;;4989502;28;20542;-82
2021/12/28 09:16:47;;;;;;;38.47;21.60;;;;;;;;;;4990184;28;20474;-83
2021/12/28 09:19:14;;;;;;;41.83;22.97;;;;;;;;;;4991578;28;20466;-81
2021/12/28 09:21:40;;;;;;;42.07;25.00;;;;;;;;;;4985003;28;20501;-83
2021/12/28 09:24:07;;;;;;;38.17;22.63;;;;;;;;;;4999398;28;20466;-82
2021/12/28 09:26:34;;;;;;;35.77;21.80;;;;;;;;;;4997468;28;20473;-82
2021/12/28 09:29:01;;;;;;;41.57;22.83;;;;;;;;;;5003429;28;20500;-82
2021/12/28 09:31:28;;;;;;;41.60;25.03;;;;;;;;;;4994931;28;20481;-83
2021/12/28 09:33:54;;;;;;;37.40;22.30;;;;;;;;;;4998856;28;20473;-78
2021/12/28 09:36:20;;;;;;;31.50;21.47;;;;;;;;;;4991198;28;20466;-81
2021/12/28 09:38:47;;;;;;;31.47;22.50;;;;;;;;;;4994658;28;20461;-81
2021/12/28 09:41:14;;;;;;;36.87;20.73;;;;;;;;;;4996976;28;20823;-82
2021/12/28 09:43:40;;;;;;;35.33;21.07;;;;;;;;;;4997053;28;20455;-83
2021/12/28 09:46:08;;;;;;;33.80;22.40;;;;;;;;;;4995047;28;20457;-84
2021/12/28 09:48:34;;;;;;;37.67;22.20;;;;;;;;;;4992256;28;20554;-85
2021/12/28 09:51:02;;;;;;;31.13;20.30;;;;;;;;;;4991916;28;20450;-84
2021/12/28 09:53:28;;;;;;;33.40;21.40;;;;;;;;;;4993222;28;20459;-85
2021/12/28 09:55:54;;;;;;;34.33;19.83;;;;;;;;;;5002770;28;21017;-84
2021/12/28 09:58:21;;;;;;;37.13;19.37;;;;;;;;;;4992953;28;20450;-84
2021/12/28 10:00:47;;;;;;;31.53;20.67;;;;;;;;;;4992352;28;20974;-82
2021/12/28 10:03:15;;;;;;;29.27;20.47;;;;;;;;;;4993432;28;20484;-82
2021/12/28 10:05:42;;;;;;;34.47;20.77;;;;;;;;;;4996293;28;20450;-81
2021/12/28 10:08:08;;;;;;;28.23;19.57;;;;;;;;;;4987140;28;20478;-85
2021/12/28 10:10:35;;;;;;;31.53;19.00;;;;;;;;;;4995588;28;20458;-82
2021/12/28 10:13:04;;;;;;;36.80;18.80;;;;;;;;;;4991985;28;20492;-81
2021/12/28 10:15:32;;;;;;;33.90;20.43;;;;;;;;;;4994288;28;20481;-81
2021/12/28 10:17:59;;;;;;;30.53;18.30;;;;;;;;;;4994552;28;20478;-83
2021/12/28 10:20:28;;;;;;;31.97;17.87;;;;;;;;;;4999591;28;20954;-83
2021/12/28 10:22:58;;;;;;;28.30;19.60;;;;;;;;;;4992713;28;20485;-83
2021/12/28 10:25:25;;;;;;;29.50;20.00;;;;;;;;;;4991812;28;20454;-80
2021/12/28 10:27:52;;;;;;;27.63;19.10;;;;;;;;;;4992493;28;20485;-83
2021/12/28 10:30:21;;;;;;;32.97;18.30;;;;;;;;;;4999803;28;21364;-83
2021/12/28 10:32:48;;;;;;;39.30;20.03;;;;;;;;;;4993901;28;20511;-82
2021/12/28 10:35:16;;;;;;;29.00;20.40;;;;;;;;;;4995371;28;20484;-83
2021/12/28 10:37:45;;;;;;;31.30;20.70;;;;;;;;;;4994280;28;20475;-83
2021/12/28 10:40:13;;;;;;;29.20;18.90;;;;;;;;;;4991305;28;20532;-81
2021/12/28 10:42:41;;;;;;;28.77;18.47;;;;;;;;;;4995183;28;20486;-83
2021/12/28 10:45:08;;;;;;;31.00;18.87;;;;;;;;;;4993898;28;20455;-82
2021/12/28 10:47:35;;;;;;;29.87;17.80;;;;;;;;;;4994912;28;20466;-80
2021/12/28 10:50:08;;;;;;;25.93;17.50;;;;;;;;;;4993379;28;20450;-80
2021/12/28 10:52:39;;;;;;;28.03;17.57;;;;;;;;;;4995687;28;20939;-82
2021/12/28 10:55:23;;;;;;;26.03;17.87;;;;;;;;;;4999871;28;20477;-81
2021/12/28 10:57:50;;;;;;;40.17;19.20;;;;;;;;;;4984974;28;20856;-82
2021/12/28 11:00:25;;;;;;;26.77;17.53;;;;;;;;;;4996596;28;20462;-81
2021/12/28 11:02:52;;;;;;;27.60;18.20;;;;;;;;;;5003388;28;20495;-81
2021/12/28 11:05:30;;;;;;;28.83;17.87;;;;;;;;;;4997622;28;20470;-81
2021/12/28 11:07:57;;;;;;;32.00;18.17;;;;;;;;;;4990570;28;20470;-83
2021/12/28 11:10:27;;;;;;;25.00;18.07;;;;;;;;;;5000098;28;20986;-82
2021/12/28 11:12:54;;;;;;;29.70;18.57;;;;;;;;;;5000772;28;20532;-83
2021/12/28 11:15:21;;;;;;;33.73;19.43;;;;;;;;;;4993938;28;20486;-81
2021/12/28 11:17:47;;;;;;;25.67;17.70;;;;;;;;;;4991765;28;20474;-82
2021/12/28 11:20:14;;;;;;;33.23;19.90;;;;;;;;;;4994703;28;20458;-82
2021/12/28 11:22:40;;;;;;;35.90;20.20;;;;;;;;;;4992957;28;20486;-84
2021/12/28 11:25:17;;;;;;;30.63;17.60;;;;;;;;;;4993242;28;20459;-81
2021/12/28 11:27:44;;;;;;;23.80;17.47;;;;;;;;;;4995285;28;20489;-81
2021/12/28 11:30:12;;;;;;;25.80;16.23;;;;;;;;;;4994758;28;20832;-81
2021/12/28 11:32:38;;;;;;;25.60;16.63;;;;;;;;;;4987460;28;20493;-80
2021/12/28 11:35:06;;;;;;;29.73;18.47;;;;;;;;;;4991313;28;20453;-81
2021/12/28 11:37:32;;;;;;;33.23;19.97;;;;;;;;;;4990961;28;20493;-81
2021/12/28 11:40:00;;;;;;;34.20;20.23;;;;;;;;;;4992043;28;20946;-81
2021/12/28 11:42:27;;;;;;;35.87;19.33;;;;;;;;;;4998152;28;20843;-80
2021/12/28 11:44:54;;;;;;;39.67;22.47;;;;;;;;;;4992163;28;20533;-81
2021/12/28 11:47:22;;;;;;;31.33;19.67;;;;;;;;;;4985507;28;20485;-79
2021/12/28 11:49:48;;;;;;;32.47;21.83;;;;;;;;;;4987032;28;20520;-83
2021/12/28 11:52:16;;;;;;;33.50;22.33;;;;;;;;;;4996070;28;20479;-82
2021/12/28 11:54:45;;;;;;;31.90;22.00;;;;;;;;;;4998130;28;20450;-82
2021/12/28 11:57:12;;;;;;;35.20;23.60;;;;;;;;;;4996563;28;20486;-82
2021/12/28 11:59:40;;;;;;;27.30;18.73;;;;;;;;;;4988915;28;20470;-82
2021/12/28 12:02:08;;;;;;;32.80;18.97;;;;;;;;;;4996319;28;20507;-81
2021/12/28 12:04:57;;;;;;;31.90;18.70;;;;;;;;;;4989177;28;20469;-80
2021/12/28 12:07:36;;;;;;;32.30;19.50;;;;;;;;;;4991180;28;20481;-81
2021/12/28 12:10:14;;;;;;;29.30;20.70;;;;;;;;;;4987972;28;20462;-82
2021/12/28 12:12:50;;;;;;;30.97;19.97;;;;;;;;;;4989571;28;20481;-81
2021/12/28 12:15:17;;;;;;;31.63;19.80;;;;;;;;;;4995558;28;21147;-81
2021/12/28 12:17:45;;;;;;;33.30;21.70;;;;;;;;;;4994126;28;20556;-80
2021/12/28 12:20:23;;;;;;;39.30;22.43;;;;;;;;;;4989014;28;21647;-80
2021/12/28 12:22:50;;;;;;;32.87;22.50;;;;;;;;;;4989257;28;20539;-80
2021/12/28 12:25:17;;;;;;;31.40;20.30;;;;;;;;;;4991938;28;20581;-81
2021/12/28 12:27:47;;;;;;;31.63;20.43;;;;;;;;;;4989978;28;20478;-81
2021/12/28 12:30:43;;;;;;;31.80;18.90;;;;;;;;;;4989035;28;20453;-81
2021/12/28 12:33:12;;;;;;;36.70;19.47;;;;;;;;;;4942486;28;21167;-84
2021/12/28 12:35:40;;;;;;;31.17;18.30;;;;;;;;;;4977833;28;20474;-83
2021/12/28 12:38:22;;;;;;;26.67;19.27;;;;;;;;;;4992896;28;20510;-83
2021/12/28 12:40:53;;;;;;;37.93;19.73;;;;;;;;;;4995655;28;20454;-82
2021/12/28 12:43:20;;;;;;;29.53;18.77;;;;;;;;;;4980195;28;20502;-84
2021/12/28 12:46:04;;;;;;;35.23;20.10;;;;;;;;;;4972813;28;20494;-83
2021/12/28 12:48:32;;;;;;;34.10;19.60;;;;;;;;;;4974067;28;20981;-81
2021/12/28 12:51:13;;;;;;;28.03;19.30;;;;;;;;;;4974396;28;20566;-82
2021/12/28 12:53:43;;;;;;;36.67;21.33;;;;;;;;;;4977909;28;20494;-83
2021/12/28 12:56:11;;;;;;;40.20;20.50;;;;;;;;;;4974591;28;20848;-82
2021/12/28 12:58:41;;;;;;;37.17;19.70;;;;;;;;;;4975459;28;20529;-84
2021/12/28 13:01:07;;;;;;;29.10;19.73;;;;;;;;;;4974807;28;20587;-84
2021/12/28 13:03:35;;;;;;;41.47;19.17;;;;;;;;;;4977053;28;20974;-81
2021/12/28 13:06:01;;;;;;;33.10;20.33;;;;;;;;;;4979687;28;20505;-83
2021/12/28 13:08:27;;;;;;;32.47;17.37;;;;;;;;;;4973900;28;20583;-80
2021/12/28 13:10:54;;;;;;;31.13;18.03;;;;;;;;;;4976669;28;20473;-82
2021/12/28 13:13:20;;;;;;;25.53;16.80;;;;;;;;;;4977052;28;20485;-81
2021/12/28 13:15:46;;;;;;;34.33;17.17;;;;;;;;;;4974384;28;20447;-81
2021/12/28 13:18:12;;;;;;;25.63;16.83;;;;;;;;;;4976928;28;21026;-81
2021/12/28 13:20:40;;;;;;;45.53;19.23;;;;;;;;;;5007977;23;20504;-83
2021/12/28 13:23:08;;;;;;;31.43;17.23;;;;;;;;;;5061164;28;20475;-85
2021/12/28 13:25:36;;;;;;;28.27;15.37;;;;;;;;;;5061585;28;20466;-84
2021/12/28 13:28:05;;;;;;;32.17;17.23;;;;;;;;;;5064101;28;20512;-84
2021/12/28 13:30:32;;;;;;;28.27;16.90;;;;;;;;;;5065512;28;20482;-85
2021/12/28 13:33:00;;;;;;;23.30;16.73;;;;;;;;;;5082739;28;20792;-84
2021/12/28 13:35:27;;;;;;;27.63;18.50;;;;;;;;;;5078427;28;20508;-84
2021/12/28 13:37:55;;;;;;;27.53;15.10;;;;;;;;;;5078072;28;20494;-84
2021/12/28 13:40:24;;;;;;;26.33;16.07;;;;;;;;;;5081220;28;20557;-85
2021/12/28 13:43:03;;;;;;;29.47;16.37;;;;;;;;;;5082120;28;20507;-85
2021/12/28 13:45:31;;;;;;;22.60;15.40;;;;;;;;;;5080927;28;21030;-84
2021/12/28 13:47:57;;;;;;;26.83;13.87;;;;;;;;;;5082267;28;20479;-84
2021/12/28 13:50:24;;;;;;;28.63;15.53;;;;;;;;;;5080047;28;21057;-84
2021/12/28 13:52:53;;;;;;;24.77;13.27;;;;;;;;;;5083011;28;20988;-85
2021/12/28 13:55:25;;;;;;;27.13;14.27;;;;;;;;;;5080674;28;20488;-85
2021/12/28 13:57:52;;;;;;;23.57;13.73;;;;;;;;;;5081341;28;20478;-85
2021/12/28 14:00:24;;;;;;;25.43;14.73;;;;;;;;;;5082105;28;20548;-84
2021/12/28 14:02:55;;;;;;;23.23;12.83;;;;;;;;;;5081740;28;20842;-84
2021/12/28 14:05:21;;;;;;;27.23;13.50;;;;;;;;;;5080921;28;20517;-85
2021/12/28 14:07:48;;;;;;;24.93;13.40;;;;;;;;;;5078253;28;20885;-85
2021/12/28 14:10:14;;;;;;;24.20;15.33;;;;;;;;;;5086089;28;20532;-84
2021/12/28 14:12:42;;;;;;;18.53;13.63;;;;;;;;;;5085328;28;20528;-85
2021/12/28 14:15:12;;;;;;;21.87;13.10;;;;;;;;;;5086303;28;20455;-84
2021/12/28 14:17:39;;;;;;;23.13;13.00;;;;;;;;;;5085019;28;20466;-85
2021/12/28 14:20:05;;;;;;;23.10;12.07;;;;;;;;;;5084150;28;20463;-85